sensor_id;sensor_type;location;lat;lon;timestamp;P1;durP1;ratioP1;P2;durP2;ratioP2
65375;SDS011;51976;47.332;9.404;2022-08-18T00:00:28;2.55;;;2.35;;
65375;SDS011;51976;47.332;9.404;2022-08-18T00:02:54;2.42;;;2.22;;
65375;SDS011;51976;47.332;9.404;2022-08-18T00:05:27;2.95;;;2.25;;
65375;SDS011;51976;47.332;9.404;2022-08-18T00:07:52;2.70;;;2.28;;
65375;SDS011;51976;47.332;9.404;2022-08-18T00:10:18;2.50;;;2.30;;
65375;SDS011;51976;47.332;9.404;2022-08-18T00:12:43;2.92;;;2.40;;
65375;SDS011;51976;47.332;9.404;2022-08-18T00:15:10;2.80;;;2.50;;
65375;SDS011;51976;47.332;9.404;2022-08-18T00:17:37;2.70;;;2.45;;
65375;SDS011;51976;47.332;9.404;2022-08-18T00:20:05;2.10;;;1.90;;
65375;SDS011;51976;47.332;9.404;2022-08-18T00:22:33;3.88;;;2.08;;
65375;SDS011;51976;47.332;9.404;2022-08-18T00:24:59;3.17;;;2.40;;
65375;SDS011;51976;47.332;9.404;2022-08-18T00:27:26;2.83;;;2.15;;
65375;SDS011;51976;47.332;9.404;2022-08-18T00:29:54;2.70;;;2.30;;
65375;SDS011;51976;47.332;9.404;2022-08-18T00:32:23;2.33;;;2.03;;
65375;SDS011;51976;47.332;9.404;2022-08-18T00:34:52;2.15;;;1.95;;
65375;SDS011;51976;47.332;9.404;2022-08-18T00:37:18;2.38;;;2.17;;
65375;SDS011;51976;47.332;9.404;2022-08-18T00:39:44;2.30;;;1.95;;
65375;SDS011;51976;47.332;9.404;2022-08-18T00:42:14;2.70;;;2.30;;
65375;SDS011;51976;47.332;9.404;2022-08-18T00:44:42;2.20;;;2.00;;
65375;SDS011;51976;47.332;9.404;2022-08-18T00:47:08;2.40;;;2.20;;
65375;SDS011;51976;47.332;9.404;2022-08-18T00:49:34;2.05;;;1.85;;
65375;SDS011;51976;47.332;9.404;2022-08-18T00:52:00;2.22;;;2.03;;
65375;SDS011;51976;47.332;9.404;2022-08-18T00:54:29;2.70;;;2.00;;
65375;SDS011;51976;47.332;9.404;2022-08-18T00:56:58;2.33;;;2.10;;
65375;SDS011;51976;47.332;9.404;2022-08-18T00:59:28;2.33;;;2.00;;
65375;SDS011;51976;47.332;9.404;2022-08-18T01:02:09;2.38;;;2.00;;
65375;SDS011;51976;47.332;9.404;2022-08-18T01:04:48;2.70;;;2.10;;
65375;SDS011;51976;47.332;9.404;2022-08-18T01:07:26;2.15;;;1.95;;
65375;SDS011;51976;47.332;9.404;2022-08-18T01:09:56;2.42;;;2.22;;
65375;SDS011;51976;47.332;9.404;2022-08-18T01:12:24;2.35;;;2.15;;
65375;SDS011;51976;47.332;9.404;2022-08-18T01:14:50;2.35;;;2.13;;
65375;SDS011;51976;47.332;9.404;2022-08-18T01:17:17;2.42;;;2.03;;
65375;SDS011;51976;47.332;9.404;2022-08-18T01:20:02;2.55;;;1.90;;
65375;SDS011;51976;47.332;9.404;2022-08-18T01:22:53;2.17;;;1.92;;
65375;SDS011;51976;47.332;9.404;2022-08-18T01:25:28;2.10;;;1.90;;
65375;SDS011;51976;47.332;9.404;2022-08-18T01:28:16;2.75;;;2.00;;
65375;SDS011;51976;47.332;9.404;2022-08-18T01:30:46;2.70;;;1.98;;
65375;SDS011;51976;47.332;9.404;2022-08-18T01:33:14;2.28;;;1.85;;
65375;SDS011;51976;47.332;9.404;2022-08-18T01:35:40;2.10;;;1.90;;
65375;SDS011;51976;47.332;9.404;2022-08-18T01:38:12;3.38;;;2.45;;
65375;SDS011;51976;47.332;9.404;2022-08-18T01:40:37;2.40;;;2.03;;
65375;SDS011;51976;47.332;9.404;2022-08-18T01:43:03;2.42;;;2.22;;
65375;SDS011;51976;47.332;9.404;2022-08-18T01:45:29;2.20;;;2.00;;
65375;SDS011;51976;47.332;9.404;2022-08-18T01:47:57;2.05;;;1.85;;
65375;SDS011;51976;47.332;9.404;2022-08-18T01:50:23;1.73;;;1.52;;
65375;SDS011;51976;47.332;9.404;2022-08-18T01:52:50;2.38;;;1.90;;
65375;SDS011;51976;47.332;9.404;2022-08-18T01:55:17;2.28;;;1.92;;
65375;SDS011;51976;47.332;9.404;2022-08-18T01:57:43;2.40;;;2.08;;
65375;SDS011;51976;47.332;9.404;2022-08-18T02:00:10;2.20;;;2.00;;
65375;SDS011;51976;47.332;9.404;2022-08-18T02:02:37;2.13;;;1.92;;
65375;SDS011;51976;47.332;9.404;2022-08-18T02:05:04;2.53;;;2.00;;
65375;SDS011;51976;47.332;9.404;2022-08-18T02:07:34;2.33;;;1.98;;
65375;SDS011;51976;47.332;9.404;2022-08-18T02:10:01;2.33;;;2.00;;
65375;SDS011;51976;47.332;9.404;2022-08-18T02:12:27;2.17;;;1.98;;
65375;SDS011;51976;47.332;9.404;2022-08-18T02:14:53;2.58;;;1.75;;
65375;SDS011;51976;47.332;9.404;2022-08-18T02:17:18;2.35;;;2.15;;
65375;SDS011;51976;47.332;9.404;2022-08-18T02:19:45;2.20;;;1.95;;
65375;SDS011;51976;47.332;9.404;2022-08-18T02:22:13;1.98;;;1.75;;
65375;SDS011;51976;47.332;9.404;2022-08-18T02:24:40;2.30;;;1.92;;
65375;SDS011;51976;47.332;9.404;2022-08-18T02:27:06;2.95;;;1.88;;
65375;SDS011;51976;47.332;9.404;2022-08-18T02:29:33;2.20;;;1.83;;
65375;SDS011;51976;47.332;9.404;2022-08-18T02:31:59;3.05;;;1.92;;
65375;SDS011;51976;47.332;9.404;2022-08-18T02:34:24;2.25;;;2.00;;
65375;SDS011;51976;47.332;9.404;2022-08-18T02:36:50;1.90;;;1.70;;
65375;SDS011;51976;47.332;9.404;2022-08-18T02:39:15;1.85;;;1.73;;
65375;SDS011;51976;47.332;9.404;2022-08-18T02:41:41;1.95;;;1.67;;
65375;SDS011;51976;47.332;9.404;2022-08-18T02:44:07;2.47;;;1.95;;
65375;SDS011;51976;47.332;9.404;2022-08-18T02:46:33;2.13;;;1.92;;
65375;SDS011;51976;47.332;9.404;2022-08-18T02:48:59;2.30;;;2.10;;
65375;SDS011;51976;47.332;9.404;2022-08-18T02:51:25;2.47;;;1.90;;
65375;SDS011;51976;47.332;9.404;2022-08-18T02:53:51;2.08;;;1.80;;
65375;SDS011;51976;47.332;9.404;2022-08-18T02:56:18;2.47;;;2.00;;
65375;SDS011;51976;47.332;9.404;2022-08-18T02:58:47;1.95;;;1.75;;
65375;SDS011;51976;47.332;9.404;2022-08-18T03:01:19;2.25;;;2.03;;
65375;SDS011;51976;47.332;9.404;2022-08-18T03:03:45;2.72;;;1.98;;
65375;SDS011;51976;47.332;9.404;2022-08-18T03:06:11;3.53;;;2.10;;
65375;SDS011;51976;47.332;9.404;2022-08-18T03:08:37;2.33;;;2.10;;
65375;SDS011;51976;47.332;9.404;2022-08-18T03:11:02;2.75;;;2.00;;
65375;SDS011;51976;47.332;9.404;2022-08-18T03:13:28;2.40;;;1.63;;
65375;SDS011;51976;47.332;9.404;2022-08-18T03:15:54;2.40;;;1.90;;
65375;SDS011;51976;47.332;9.404;2022-08-18T03:18:20;2.05;;;1.70;;
65375;SDS011;51976;47.332;9.404;2022-08-18T03:20:47;2.15;;;1.80;;
65375;SDS011;51976;47.332;9.404;2022-08-18T03:23:13;2.75;;;1.77;;
65375;SDS011;51976;47.332;9.404;2022-08-18T03:25:45;2.25;;;1.85;;
65375;SDS011;51976;47.332;9.404;2022-08-18T03:28:12;2.35;;;2.00;;
65375;SDS011;51976;47.332;9.404;2022-08-18T03:30:38;2.10;;;1.90;;
65375;SDS011;51976;47.332;9.404;2022-08-18T03:33:04;2.67;;;1.80;;
65375;SDS011;51976;47.332;9.404;2022-08-18T03:35:29;2.25;;;1.70;;
65375;SDS011;51976;47.332;9.404;2022-08-18T03:37:58;2.33;;;1.90;;
65375;SDS011;51976;47.332;9.404;2022-08-18T03:40:24;1.85;;;1.60;;
65375;SDS011;51976;47.332;9.404;2022-08-18T03:42:50;2.47;;;1.70;;
65375;SDS011;51976;47.332;9.404;2022-08-18T03:45:15;1.90;;;1.60;;
65375;SDS011;51976;47.332;9.404;2022-08-18T03:47:40;1.90;;;1.70;;
65375;SDS011;51976;47.332;9.404;2022-08-18T03:50:06;1.77;;;1.55;;
65375;SDS011;51976;47.332;9.404;2022-08-18T03:52:32;2.08;;;1.50;;
65375;SDS011;51976;47.332;9.404;2022-08-18T03:54:58;2.55;;;1.73;;
65375;SDS011;51976;47.332;9.404;2022-08-18T03:57:24;1.98;;;1.77;;
65375;SDS011;51976;47.332;9.404;2022-08-18T03:59:49;1.88;;;1.60;;
65375;SDS011;51976;47.332;9.404;2022-08-18T04:02:15;1.90;;;1.60;;
65375;SDS011;51976;47.332;9.404;2022-08-18T04:04:40;1.90;;;1.70;;
65375;SDS011;51976;47.332;9.404;2022-08-18T04:07:07;1.98;;;1.77;;
65375;SDS011;51976;47.332;9.404;2022-08-18T04:09:34;2.17;;;1.90;;
65375;SDS011;51976;47.332;9.404;2022-08-18T04:12:03;2.63;;;1.90;;
65375;SDS011;51976;47.332;9.404;2022-08-18T04:14:35;1.73;;;1.63;;
65375;SDS011;51976;47.332;9.404;2022-08-18T04:17:03;1.92;;;1.55;;
65375;SDS011;51976;47.332;9.404;2022-08-18T04:19:29;3.10;;;1.75;;
65375;SDS011;51976;47.332;9.404;2022-08-18T04:21:57;1.88;;;1.70;;
65375;SDS011;51976;47.332;9.404;2022-08-18T04:24:23;2.17;;;1.70;;
65375;SDS011;51976;47.332;9.404;2022-08-18T04:26:50;2.35;;;1.55;;
65375;SDS011;51976;47.332;9.404;2022-08-18T04:29:17;2.10;;;1.90;;
65375;SDS011;51976;47.332;9.404;2022-08-18T04:31:45;2.60;;;1.77;;
65375;SDS011;51976;47.332;9.404;2022-08-18T04:34:11;2.00;;;1.80;;
65375;SDS011;51976;47.332;9.404;2022-08-18T04:36:37;2.05;;;1.83;;
65375;SDS011;51976;47.332;9.404;2022-08-18T04:39:04;2.13;;;1.67;;
65375;SDS011;51976;47.332;9.404;2022-08-18T04:41:32;1.90;;;1.60;;
65375;SDS011;51976;47.332;9.404;2022-08-18T04:43:58;2.08;;;1.70;;
65375;SDS011;51976;47.332;9.404;2022-08-18T04:46:26;1.70;;;1.55;;
65375;SDS011;51976;47.332;9.404;2022-08-18T04:48:53;1.60;;;1.50;;
65375;SDS011;51976;47.332;9.404;2022-08-18T04:51:23;2.60;;;1.83;;
65375;SDS011;51976;47.332;9.404;2022-08-18T04:53:52;1.48;;;1.38;;
65375;SDS011;51976;47.332;9.404;2022-08-18T04:56:24;2.17;;;1.63;;
65375;SDS011;51976;47.332;9.404;2022-08-18T04:59:03;2.13;;;1.70;;
65375;SDS011;51976;47.332;9.404;2022-08-18T05:01:34;1.90;;;1.70;;
65375;SDS011;51976;47.332;9.404;2022-08-18T05:04:04;1.60;;;1.40;;
65375;SDS011;51976;47.332;9.404;2022-08-18T05:06:30;2.13;;;1.63;;
65375;SDS011;51976;47.332;9.404;2022-08-18T05:08:57;1.63;;;1.23;;
65375;SDS011;51976;47.332;9.404;2022-08-18T05:11:26;2.15;;;1.73;;
65375;SDS011;51976;47.332;9.404;2022-08-18T05:13:56;1.90;;;1.70;;
65375;SDS011;51976;47.332;9.404;2022-08-18T05:16:22;2.33;;;1.70;;
65375;SDS011;51976;47.332;9.404;2022-08-18T05:18:49;1.67;;;1.58;;
65375;SDS011;51976;47.332;9.404;2022-08-18T05:21:17;2.17;;;1.80;;
65375;SDS011;51976;47.332;9.404;2022-08-18T05:23:45;2.15;;;1.73;;
65375;SDS011;51976;47.332;9.404;2022-08-18T05:26:12;2.10;;;1.60;;
65375;SDS011;51976;47.332;9.404;2022-08-18T05:28:39;1.80;;;1.50;;
65375;SDS011;51976;47.332;9.404;2022-08-18T05:31:09;2.08;;;1.70;;
65375;SDS011;51976;47.332;9.404;2022-08-18T05:33:37;1.80;;;1.60;;
65375;SDS011;51976;47.332;9.404;2022-08-18T05:39:14;1.92;;;1.60;;
65375;SDS011;51976;47.332;9.404;2022-08-18T05:42:00;2.10;;;1.85;;
65375;SDS011;51976;47.332;9.404;2022-08-18T05:44:32;1.95;;;1.73;;
65375;SDS011;51976;47.332;9.404;2022-08-18T05:47:13;2.38;;;1.58;;
65375;SDS011;51976;47.332;9.404;2022-08-18T05:49:43;2.03;;;1.33;;
65375;SDS011;51976;47.332;9.404;2022-08-18T05:52:18;1.77;;;1.42;;
65375;SDS011;51976;47.332;9.404;2022-08-18T05:54:53;1.63;;;1.45;;
65375;SDS011;51976;47.332;9.404;2022-08-18T05:57:46;2.65;;;1.50;;
65375;SDS011;51976;47.332;9.404;2022-08-18T06:00:15;1.45;;;1.35;;
65375;SDS011;51976;47.332;9.404;2022-08-18T06:03:11;1.88;;;1.63;;
65375;SDS011;51976;47.332;9.404;2022-08-18T06:05:37;1.50;;;1.40;;
65375;SDS011;51976;47.332;9.404;2022-08-18T06:08:12;1.60;;;1.35;;
65375;SDS011;51976;47.332;9.404;2022-08-18T06:10:40;1.80;;;1.60;;
65375;SDS011;51976;47.332;9.404;2022-08-18T06:13:10;1.70;;;1.50;;
65375;SDS011;51976;47.332;9.404;2022-08-18T06:15:46;2.00;;;1.65;;
65375;SDS011;51976;47.332;9.404;2022-08-18T06:24:10;2.20;;;1.70;;
65375;SDS011;51976;47.332;9.404;2022-08-18T06:27:02;2.03;;;1.60;;
65375;SDS011;51976;47.332;9.404;2022-08-18T06:29:56;1.88;;;1.65;;
65375;SDS011;51976;47.332;9.404;2022-08-18T06:32:44;3.35;;;1.98;;
65375;SDS011;51976;47.332;9.404;2022-08-18T06:35:35;3.73;;;1.90;;
65375;SDS011;51976;47.332;9.404;2022-08-18T06:41:19;2.05;;;1.63;;
65375;SDS011;51976;47.332;9.404;2022-08-18T06:44:00;2.08;;;1.55;;
65375;SDS011;51976;47.332;9.404;2022-08-18T06:46:44;1.95;;;1.65;;
65375;SDS011;51976;47.332;9.404;2022-08-18T06:49:22;2.22;;;1.80;;
65375;SDS011;51976;47.332;9.404;2022-08-18T06:52:16;2.78;;;1.75;;
65375;SDS011;51976;47.332;9.404;2022-08-18T06:54:51;2.70;;;1.77;;
65375;SDS011;51976;47.332;9.404;2022-08-18T06:57:22;2.25;;;1.70;;
65375;SDS011;51976;47.332;9.404;2022-08-18T06:59:57;3.13;;;2.08;;
65375;SDS011;51976;47.332;9.404;2022-08-18T07:02:33;2.13;;;1.73;;
65375;SDS011;51976;47.332;9.404;2022-08-18T07:05:22;2.30;;;1.60;;
65375;SDS011;51976;47.332;9.404;2022-08-18T07:08:01;2.40;;;1.88;;
65375;SDS011;51976;47.332;9.404;2022-08-18T07:10:32;2.20;;;1.73;;
65375;SDS011;51976;47.332;9.404;2022-08-18T07:13:15;2.22;;;1.55;;
65375;SDS011;51976;47.332;9.404;2022-08-18T07:18:12;2.67;;;1.80;;
65375;SDS011;51976;47.332;9.404;2022-08-18T07:20:43;3.38;;;1.70;;
65375;SDS011;51976;47.332;9.404;2022-08-18T07:23:22;3.20;;;1.60;;
65375;SDS011;51976;47.332;9.404;2022-08-18T07:26:14;5.28;;;2.10;;
65375;SDS011;51976;47.332;9.404;2022-08-18T07:28:45;5.78;;;2.10;;
65375;SDS011;51976;47.332;9.404;2022-08-18T07:31:23;2.80;;;1.73;;
65375;SDS011;51976;47.332;9.404;2022-08-18T07:34:39;3.50;;;1.90;;
65375;SDS011;51976;47.332;9.404;2022-08-18T07:36:54;2.90;;;1.80;;
65375;SDS011;51976;47.332;9.404;2022-08-18T07:39:35;2.25;;;1.83;;
65375;SDS011;51976;47.332;9.404;2022-08-18T07:42:12;4.78;;;1.80;;
65375;SDS011;51976;47.332;9.404;2022-08-18T07:45:04;1.90;;;1.70;;
65375;SDS011;51976;47.332;9.404;2022-08-18T07:47:58;2.22;;;1.80;;
65375;SDS011;51976;47.332;9.404;2022-08-18T07:50:26;3.85;;;1.88;;
65375;SDS011;51976;47.332;9.404;2022-08-18T07:56:06;1.95;;;1.70;;
65375;SDS011;51976;47.332;9.404;2022-08-18T07:58:43;2.78;;;1.88;;
65375;SDS011;51976;47.332;9.404;2022-08-18T08:01:26;4.00;;;2.00;;
65375;SDS011;51976;47.332;9.404;2022-08-18T08:04:11;3.10;;;1.98;;
65375;SDS011;51976;47.332;9.404;2022-08-18T08:07:00;3.30;;;1.92;;
65375;SDS011;51976;47.332;9.404;2022-08-18T08:09:35;4.25;;;2.00;;
65375;SDS011;51976;47.332;9.404;2022-08-18T08:15:25;3.22;;;2.00;;
65375;SDS011;51976;47.332;9.404;2022-08-18T08:18:11;3.10;;;2.30;;
65375;SDS011;51976;47.332;9.404;2022-08-18T08:20:48;2.65;;;1.90;;
65375;SDS011;51976;47.332;9.404;2022-08-18T08:23:23;2.78;;;2.13;;
65375;SDS011;51976;47.332;9.404;2022-08-18T08:29:09;3.08;;;2.05;;
65375;SDS011;51976;47.332;9.404;2022-08-18T08:31:54;3.47;;;1.83;;
65375;SDS011;51976;47.332;9.404;2022-08-18T08:34:44;3.53;;;2.13;;
65375;SDS011;51976;47.332;9.404;2022-08-18T08:37:38;4.20;;;2.20;;
65375;SDS011;51976;47.332;9.404;2022-08-18T08:40:25;2.40;;;2.00;;
65375;SDS011;51976;47.332;9.404;2022-08-18T08:43:00;3.38;;;2.20;;
65375;SDS011;51976;47.332;9.404;2022-08-18T08:45:33;3.13;;;1.83;;
65375;SDS011;51976;47.332;9.404;2022-08-18T08:48:15;6.88;;;2.10;;
65375;SDS011;51976;47.332;9.404;2022-08-18T08:50:48;2.70;;;1.90;;
65375;SDS011;51976;47.332;9.404;2022-08-18T08:53:23;2.20;;;1.73;;
65375;SDS011;51976;47.332;9.404;2022-08-18T08:55:55;2.08;;;1.55;;
65375;SDS011;51976;47.332;9.404;2022-08-18T08:58:32;3.97;;;2.00;;
65375;SDS011;51976;47.332;9.404;2022-08-18T09:01:09;3.33;;;2.33;;
65375;SDS011;51976;47.332;9.404;2022-08-18T09:03:49;3.70;;;1.70;;
65375;SDS011;51976;47.332;9.404;2022-08-18T09:06:56;2.85;;;2.10;;
65375;SDS011;51976;47.332;9.404;2022-08-18T09:12:23;3.63;;;1.92;;
65375;SDS011;51976;47.332;9.404;2022-08-18T09:15:20;3.95;;;2.30;;
65375;SDS011;51976;47.332;9.404;2022-08-18T09:18:27;3.50;;;1.83;;
65375;SDS011;51976;47.332;9.404;2022-08-18T09:21:17;2.78;;;1.70;;
65375;SDS011;51976;47.332;9.404;2022-08-18T09:23:55;3.80;;;2.00;;
65375;SDS011;51976;47.332;9.404;2022-08-18T09:27:11;3.67;;;1.73;;
65375;SDS011;51976;47.332;9.404;2022-08-18T09:29:23;2.65;;;1.75;;
65375;SDS011;51976;47.332;9.404;2022-08-18T09:32:32;2.25;;;1.75;;
65375;SDS011;51976;47.332;9.404;2022-08-18T09:35:17;4.68;;;1.70;;
65375;SDS011;51976;47.332;9.404;2022-08-18T09:38:07;2.50;;;1.60;;
65375;SDS011;51976;47.332;9.404;2022-08-18T09:40:59;1.63;;;1.48;;
65375;SDS011;51976;47.332;9.404;2022-08-18T09:43:55;1.80;;;1.63;;
65375;SDS011;51976;47.332;9.404;2022-08-18T09:46:49;3.40;;;1.73;;
65375;SDS011;51976;47.332;9.404;2022-08-18T09:49:37;2.33;;;1.52;;
65375;SDS011;51976;47.332;9.404;2022-08-18T10:01:35;3.85;;;1.75;;
65375;SDS011;51976;47.332;9.404;2022-08-18T10:06:49;2.65;;;2.17;;
65375;SDS011;51976;47.332;9.404;2022-08-18T10:09:25;2.10;;;1.90;;
65375;SDS011;51976;47.332;9.404;2022-08-18T10:12:30;3.08;;;1.88;;
65375;SDS011;51976;47.332;9.404;2022-08-18T10:15:35;3.10;;;1.75;;
65375;SDS011;51976;47.332;9.404;2022-08-18T10:21:13;1.80;;;1.47;;
65375;SDS011;51976;47.332;9.404;2022-08-18T10:23:48;3.35;;;1.70;;
65375;SDS011;51976;47.332;9.404;2022-08-18T10:29:47;2.35;;;1.70;;
65375;SDS011;51976;47.332;9.404;2022-08-18T10:32:16;3.45;;;1.67;;
65375;SDS011;51976;47.332;9.404;2022-08-18T10:34:50;2.28;;;2.05;;
65375;SDS011;51976;47.332;9.404;2022-08-18T10:40:12;2.20;;;1.83;;
65375;SDS011;51976;47.332;9.404;2022-08-18T10:42:49;2.20;;;1.77;;
65375;SDS011;51976;47.332;9.404;2022-08-18T10:45:27;1.90;;;1.70;;
65375;SDS011;51976;47.332;9.404;2022-08-18T10:47:58;2.55;;;1.67;;
65375;SDS011;51976;47.332;9.404;2022-08-18T10:50:38;3.13;;;2.00;;
65375;SDS011;51976;47.332;9.404;2022-08-18T10:53:19;3.83;;;2.03;;
65375;SDS011;51976;47.332;9.404;2022-08-18T10:56:00;2.50;;;2.00;;
65375;SDS011;51976;47.332;9.404;2022-08-18T10:58:50;1.70;;;1.38;;
65375;SDS011;51976;47.332;9.404;2022-08-18T11:04:23;3.03;;;2.10;;
65375;SDS011;51976;47.332;9.404;2022-08-18T11:07:05;2.50;;;1.75;;
65375;SDS011;51976;47.332;9.404;2022-08-18T11:09:35;2.80;;;1.88;;
65375;SDS011;51976;47.332;9.404;2022-08-18T11:12:02;2.78;;;1.75;;
65375;SDS011;51976;47.332;9.404;2022-08-18T11:14:49;2.03;;;1.60;;
65375;SDS011;51976;47.332;9.404;2022-08-18T11:17:49;1.50;;;1.40;;
65375;SDS011;51976;47.332;9.404;2022-08-18T11:20:19;2.00;;;1.58;;
65375;SDS011;51976;47.332;9.404;2022-08-18T11:22:49;2.38;;;2.00;;
65375;SDS011;51976;47.332;9.404;2022-08-18T11:25:19;2.08;;;1.77;;
65375;SDS011;51976;47.332;9.404;2022-08-18T11:27:51;2.20;;;1.73;;
65375;SDS011;51976;47.332;9.404;2022-08-18T11:30:17;3.67;;;1.90;;
65375;SDS011;51976;47.332;9.404;2022-08-18T11:32:43;2.97;;;1.70;;
65375;SDS011;51976;47.332;9.404;2022-08-18T11:35:14;2.55;;;1.77;;
65375;SDS011;51976;47.332;9.404;2022-08-18T11:37:53;2.10;;;1.30;;
65375;SDS011;51976;47.332;9.404;2022-08-18T11:40:28;2.50;;;1.95;;
65375;SDS011;51976;47.332;9.404;2022-08-18T11:43:10;2.60;;;2.05;;
65375;SDS011;51976;47.332;9.404;2022-08-18T11:45:48;3.13;;;1.73;;
65375;SDS011;51976;47.332;9.404;2022-08-18T11:48:31;2.97;;;2.20;;
65375;SDS011;51976;47.332;9.404;2022-08-18T11:51:10;4.75;;;2.00;;
65375;SDS011;51976;47.332;9.404;2022-08-18T11:53:51;2.92;;;2.20;;
65375;SDS011;51976;47.332;9.404;2022-08-18T11:56:37;2.88;;;1.92;;
65375;SDS011;51976;47.332;9.404;2022-08-18T11:59:06;3.25;;;2.35;;
65375;SDS011;51976;47.332;9.404;2022-08-18T12:01:59;3.22;;;1.85;;
65375;SDS011;51976;47.332;9.404;2022-08-18T12:04:31;2.75;;;1.80;;
65375;SDS011;51976;47.332;9.404;2022-08-18T12:07:12;2.63;;;1.77;;
65375;SDS011;51976;47.332;9.404;2022-08-18T12:10:27;2.92;;;1.90;;
65375;SDS011;51976;47.332;9.404;2022-08-18T12:12:45;5.30;;;1.90;;
65375;SDS011;51976;47.332;9.404;2022-08-18T12:15:30;3.05;;;2.00;;
65375;SDS011;51976;47.332;9.404;2022-08-18T12:17:57;2.47;;;1.75;;
65375;SDS011;51976;47.332;9.404;2022-08-18T12:20:23;3.88;;;1.73;;
65375;SDS011;51976;47.332;9.404;2022-08-18T12:22:48;3.38;;;1.98;;
65375;SDS011;51976;47.332;9.404;2022-08-18T12:25:16;2.30;;;1.70;;
65375;SDS011;51976;47.332;9.404;2022-08-18T12:27:43;3.92;;;2.03;;
65375;SDS011;51976;47.332;9.404;2022-08-18T12:30:09;2.88;;;1.85;;
65375;SDS011;51976;47.332;9.404;2022-08-18T12:32:38;4.68;;;2.00;;
65375;SDS011;51976;47.332;9.404;2022-08-18T12:35:05;3.60;;;2.25;;
65375;SDS011;51976;47.332;9.404;2022-08-18T12:37:32;3.42;;;1.92;;
65375;SDS011;51976;47.332;9.404;2022-08-18T12:39:58;3.10;;;2.03;;
65375;SDS011;51976;47.332;9.404;2022-08-18T12:42:24;2.85;;;1.70;;
65375;SDS011;51976;47.332;9.404;2022-08-18T12:44:50;3.17;;;2.20;;
65375;SDS011;51976;47.332;9.404;2022-08-18T12:47:18;3.17;;;1.80;;
65375;SDS011;51976;47.332;9.404;2022-08-18T12:49:47;4.07;;;1.95;;
65375;SDS011;51976;47.332;9.404;2022-08-18T12:52:13;4.18;;;2.00;;
65375;SDS011;51976;47.332;9.404;2022-08-18T12:54:39;4.75;;;2.10;;
65375;SDS011;51976;47.332;9.404;2022-08-18T12:57:07;5.32;;;2.10;;
65375;SDS011;51976;47.332;9.404;2022-08-18T12:59:37;7.82;;;2.30;;
65375;SDS011;51976;47.332;9.404;2022-08-18T13:02:02;4.90;;;1.92;;
65375;SDS011;51976;47.332;9.404;2022-08-18T13:04:28;3.83;;;2.28;;
65375;SDS011;51976;47.332;9.404;2022-08-18T13:06:55;3.80;;;2.38;;
65375;SDS011;51976;47.332;9.404;2022-08-18T13:09:23;7.97;;;2.53;;
65375;SDS011;51976;47.332;9.404;2022-08-18T13:11:48;5.50;;;2.40;;
65375;SDS011;51976;47.332;9.404;2022-08-18T13:14:14;3.80;;;2.70;;
65375;SDS011;51976;47.332;9.404;2022-08-18T13:16:41;5.03;;;3.45;;
65375;SDS011;51976;47.332;9.404;2022-08-18T13:19:10;5.10;;;3.38;;
65375;SDS011;51976;47.332;9.404;2022-08-18T13:21:37;5.07;;;3.55;;
65375;SDS011;51976;47.332;9.404;2022-08-18T13:24:03;5.35;;;3.38;;
65375;SDS011;51976;47.332;9.404;2022-08-18T13:26:30;4.88;;;3.22;;
65375;SDS011;51976;47.332;9.404;2022-08-18T13:29:00;5.72;;;4.40;;
65375;SDS011;51976;47.332;9.404;2022-08-18T13:31:25;7.53;;;4.07;;
65375;SDS011;51976;47.332;9.404;2022-08-18T13:33:52;6.88;;;4.05;;
65375;SDS011;51976;47.332;9.404;2022-08-18T13:36:18;5.60;;;4.03;;
65375;SDS011;51976;47.332;9.404;2022-08-18T13:38:44;5.28;;;3.78;;
65375;SDS011;51976;47.332;9.404;2022-08-18T13:41:10;6.47;;;3.88;;
65375;SDS011;51976;47.332;9.404;2022-08-18T13:43:37;5.22;;;3.30;;
65375;SDS011;51976;47.332;9.404;2022-08-18T13:46:07;7.22;;;4.20;;
65375;SDS011;51976;47.332;9.404;2022-08-18T13:48:34;4.70;;;3.85;;
65375;SDS011;51976;47.332;9.404;2022-08-18T13:51:00;4.82;;;3.67;;
65375;SDS011;51976;47.332;9.404;2022-08-18T13:53:28;4.05;;;3.40;;
65375;SDS011;51976;47.332;9.404;2022-08-18T13:55:55;3.78;;;3.28;;
65375;SDS011;51976;47.332;9.404;2022-08-18T13:58:22;4.07;;;3.13;;
65375;SDS011;51976;47.332;9.404;2022-08-18T14:00:48;5.68;;;3.28;;
65375;SDS011;51976;47.332;9.404;2022-08-18T14:03:17;3.67;;;2.95;;
65375;SDS011;51976;47.332;9.404;2022-08-18T14:05:42;4.97;;;3.42;;
65375;SDS011;51976;47.332;9.404;2022-08-18T14:08:08;4.32;;;3.13;;
65375;SDS011;51976;47.332;9.404;2022-08-18T14:10:34;5.53;;;3.42;;
65375;SDS011;51976;47.332;9.404;2022-08-18T14:13:00;5.22;;;3.60;;
65375;SDS011;51976;47.332;9.404;2022-08-18T14:15:25;4.40;;;3.67;;
65375;SDS011;51976;47.332;9.404;2022-08-18T14:17:51;4.28;;;3.25;;
65375;SDS011;51976;47.332;9.404;2022-08-18T14:20:17;4.72;;;3.45;;
65375;SDS011;51976;47.332;9.404;2022-08-18T14:23:03;5.78;;;3.83;;
65375;SDS011;51976;47.332;9.404;2022-08-18T14:25:49;4.95;;;3.05;;
65375;SDS011;51976;47.332;9.404;2022-08-18T14:28:34;8.13;;;3.00;;
65375;SDS011;51976;47.332;9.404;2022-08-18T14:31:00;4.32;;;3.47;;
65375;SDS011;51976;47.332;9.404;2022-08-18T14:33:27;5.68;;;4.30;;
65375;SDS011;51976;47.332;9.404;2022-08-18T14:35:54;11.77;;;4.05;;
65375;SDS011;51976;47.332;9.404;2022-08-18T14:38:21;4.25;;;3.30;;
65375;SDS011;51976;47.332;9.404;2022-08-18T14:40:47;3.97;;;3.17;;
65375;SDS011;51976;47.332;9.404;2022-08-18T14:43:14;5.72;;;3.30;;
65375;SDS011;51976;47.332;9.404;2022-08-18T14:45:43;6.90;;;3.92;;
65375;SDS011;51976;47.332;9.404;2022-08-18T14:48:13;4.47;;;3.33;;
65375;SDS011;51976;47.332;9.404;2022-08-18T14:50:40;4.68;;;3.13;;
65375;SDS011;51976;47.332;9.404;2022-08-18T14:53:07;4.70;;;3.20;;
65375;SDS011;51976;47.332;9.404;2022-08-18T14:55:33;4.85;;;3.47;;
65375;SDS011;51976;47.332;9.404;2022-08-18T14:57:59;4.60;;;2.90;;
65375;SDS011;51976;47.332;9.404;2022-08-18T15:00:26;3.80;;;2.75;;
65375;SDS011;51976;47.332;9.404;2022-08-18T15:02:52;4.88;;;3.55;;
65375;SDS011;51976;47.332;9.404;2022-08-18T15:05:18;3.72;;;3.33;;
65375;SDS011;51976;47.332;9.404;2022-08-18T15:07:43;4.18;;;2.75;;
65375;SDS011;51976;47.332;9.404;2022-08-18T15:10:10;4.07;;;2.75;;
65375;SDS011;51976;47.332;9.404;2022-08-18T15:12:37;4.78;;;3.10;;
65375;SDS011;51976;47.332;9.404;2022-08-18T15:15:03;3.95;;;2.80;;
65375;SDS011;51976;47.332;9.404;2022-08-18T15:17:32;4.97;;;3.10;;
65375;SDS011;51976;47.332;9.404;2022-08-18T15:19:59;4.20;;;2.63;;
65375;SDS011;51976;47.332;9.404;2022-08-18T15:22:25;4.10;;;3.30;;
65375;SDS011;51976;47.332;9.404;2022-08-18T15:25:10;5.28;;;3.03;;
65375;SDS011;51976;47.332;9.404;2022-08-18T15:27:56;4.57;;;2.80;;
65375;SDS011;51976;47.332;9.404;2022-08-18T15:30:21;5.13;;;2.83;;
65375;SDS011;51976;47.332;9.404;2022-08-18T15:32:47;5.03;;;3.20;;
65375;SDS011;51976;47.332;9.404;2022-08-18T15:35:13;3.25;;;2.80;;
65375;SDS011;51976;47.332;9.404;2022-08-18T15:37:42;4.13;;;2.72;;
65375;SDS011;51976;47.332;9.404;2022-08-18T15:40:11;3.53;;;2.50;;
65375;SDS011;51976;47.332;9.404;2022-08-18T15:42:43;3.60;;;3.17;;
65375;SDS011;51976;47.332;9.404;2022-08-18T15:45:13;4.85;;;2.80;;
65375;SDS011;51976;47.332;9.404;2022-08-18T15:47:41;4.10;;;2.78;;
65375;SDS011;51976;47.332;9.404;2022-08-18T15:50:07;2.92;;;2.67;;
65375;SDS011;51976;47.332;9.404;2022-08-18T15:52:33;3.88;;;2.97;;
65375;SDS011;51976;47.332;9.404;2022-08-18T15:55:01;4.10;;;2.95;;
65375;SDS011;51976;47.332;9.404;2022-08-18T15:57:27;3.78;;;2.83;;
65375;SDS011;51976;47.332;9.404;2022-08-18T15:59:54;3.60;;;2.83;;
65375;SDS011;51976;47.332;9.404;2022-08-18T16:02:20;3.35;;;2.85;;
65375;SDS011;51976;47.332;9.404;2022-08-18T16:04:47;5.07;;;2.97;;
65375;SDS011;51976;47.332;9.404;2022-08-18T16:07:12;3.50;;;2.95;;
65375;SDS011;51976;47.332;9.404;2022-08-18T16:09:40;4.22;;;3.35;;